sensor_id;sensor_type;location;lat;lon;timestamp;pressure;altitude;pressure_sealevel;temperature;humidity
6423;BME280;3244;42.708;23.288;2023-05-03T00:00:02;95339.03;;;14.21;41.44
6423;BME280;3244;42.708;23.288;2023-05-03T00:02:33;95343.94;;;14.07;41.53
6423;BME280;3244;42.708;23.288;2023-05-03T00:05:04;95343.53;;;13.96;41.59
6423;BME280;3244;42.708;23.288;2023-05-03T00:07:34;95340.88;;;13.79;42.15
6423;BME280;3244;42.708;23.288;2023-05-03T00:10:00;95356.56;;;13.70;42.31
6423;BME280;3244;42.708;23.288;2023-05-03T00:12:27;95352.66;;;13.61;42.74
6423;BME280;3244;42.708;23.288;2023-05-03T00:14:54;95341.47;;;13.63;42.61
6423;BME280;3244;42.708;23.288;2023-05-03T00:17:20;95357.06;;;13.57;42.60
6423;BME280;3244;42.708;23.288;2023-05-03T00:19:48;95341.63;;;13.60;43.09
6423;BME280;3244;42.708;23.288;2023-05-03T00:22:15;95347.09;;;13.51;43.13
6423;BME280;3244;42.708;23.288;2023-05-03T00:24:42;95350.78;;;13.44;43.68
6423;BME280;3244;42.708;23.288;2023-05-03T00:27:08;95347.94;;;13.52;44.31
6423;BME280;3244;42.708;23.288;2023-05-03T00:29:35;95354.09;;;13.46;44.29
6423;BME280;3244;42.708;23.288;2023-05-03T00:32:02;95346.16;;;13.54;44.66
6423;BME280;3244;42.708;23.288;2023-05-03T00:34:28;95347.88;;;13.53;44.75
6423;BME280;3244;42.708;23.288;2023-05-03T00:36:56;95370.31;;;13.45;44.55
6423;BME280;3244;42.708;23.288;2023-05-03T00:39:23;95367.00;;;13.43;44.83
6423;BME280;3244;42.708;23.288;2023-05-03T00:41:55;95359.50;;;13.39;45.40
6423;BME280;3244;42.708;23.288;2023-05-03T00:44:22;95362.91;;;13.39;45.01
6423;BME280;3244;42.708;23.288;2023-05-03T00:46:49;95368.78;;;13.41;45.05
6423;BME280;3244;42.708;23.288;2023-05-03T00:49:16;95372.66;;;13.30;45.25
6423;BME280;3244;42.708;23.288;2023-05-03T00:51:43;95396.03;;;13.19;45.61
6423;BME280;3244;42.708;23.288;2023-05-03T00:54:11;95369.13;;;13.10;45.88
6423;BME280;3244;42.708;23.288;2023-05-03T00:56:38;95365.59;;;13.13;45.48
6423;BME280;3244;42.708;23.288;2023-05-03T00:59:05;95387.31;;;13.01;45.76
6423;BME280;3244;42.708;23.288;2023-05-03T01:01:32;95358.31;;;13.04;46.17
6423;BME280;3244;42.708;23.288;2023-05-03T01:04:00;95354.09;;;13.03;45.82
6423;BME280;3244;42.708;23.288;2023-05-03T01:06:31;95369.19;;;13.09;45.73
6423;BME280;3244;42.708;23.288;2023-05-03T01:09:07;95349.00;;;13.03;45.54
6423;BME280;3244;42.708;23.288;2023-05-03T01:11:46;95346.03;;;13.13;45.01
6423;BME280;3244;42.708;23.288;2023-05-03T01:14:21;95339.78;;;13.22;45.45
6423;BME280;3244;42.708;23.288;2023-05-03T01:16:55;95341.50;;;13.21;45.18
6423;BME280;3244;42.708;23.288;2023-05-03T01:19:28;95361.66;;;13.06;45.29
6423;BME280;3244;42.708;23.288;2023-05-03T01:22:12;95353.03;;;12.86;45.87
6423;BME280;3244;42.708;23.288;2023-05-03T01:24:45;95349.47;;;12.90;45.83
6423;BME280;3244;42.708;23.288;2023-05-03T01:27:14;95336.28;;;12.79;46.12
6423;BME280;3244;42.708;23.288;2023-05-03T01:29:40;95334.19;;;12.67;46.37
6423;BME280;3244;42.708;23.288;2023-05-03T01:32:12;95332.19;;;12.75;46.38
6423;BME280;3244;42.708;23.288;2023-05-03T01:34:45;95332.25;;;12.74;46.40
6423;BME280;3244;42.708;23.288;2023-05-03T01:37:16;95322.44;;;12.86;46.06
6423;BME280;3244;42.708;23.288;2023-05-03T01:39:47;95329.53;;;12.78;46.34
6423;BME280;3244;42.708;23.288;2023-05-03T01:42:17;95334.84;;;12.72;45.69
6423;BME280;3244;42.708;23.288;2023-05-03T01:44:46;95334.34;;;12.63;46.22
6423;BME280;3244;42.708;23.288;2023-05-03T01:47:14;95314.78;;;12.63;46.33
6423;BME280;3244;42.708;23.288;2023-05-03T01:49:40;95325.75;;;12.65;45.81
6423;BME280;3244;42.708;23.288;2023-05-03T01:52:07;95316.94;;;12.52;46.44
6423;BME280;3244;42.708;23.288;2023-05-03T01:54:34;95304.84;;;12.57;46.11
6423;BME280;3244;42.708;23.288;2023-05-03T01:57:01;95314.06;;;12.61;46.10
6423;BME280;3244;42.708;23.288;2023-05-03T01:59:29;95309.78;;;12.62;46.38
6423;BME280;3244;42.708;23.288;2023-05-03T02:01:55;95301.84;;;12.46;46.62
6423;BME280;3244;42.708;23.288;2023-05-03T02:04:22;95308.63;;;12.47;46.92
6423;BME280;3244;42.708;23.288;2023-05-03T02:06:49;95303.19;;;12.56;46.47
6423;BME280;3244;42.708;23.288;2023-05-03T02:09:16;95308.63;;;12.47;46.58
6423;BME280;3244;42.708;23.288;2023-05-03T02:11:42;95305.13;;;12.49;46.87
6423;BME280;3244;42.708;23.288;2023-05-03T02:14:09;95309.59;;;12.43;46.60
6423;BME280;3244;42.708;23.288;2023-05-03T02:16:37;95293.53;;;12.41;46.77
6423;BME280;3244;42.708;23.288;2023-05-03T02:19:04;95292.13;;;12.34;47.50
6423;BME280;3244;42.708;23.288;2023-05-03T02:21:32;95289.38;;;12.38;47.76
6423;BME280;3244;42.708;23.288;2023-05-03T02:23:59;95296.09;;;12.41;47.44
6423;BME280;3244;42.708;23.288;2023-05-03T02:26:26;95299.53;;;12.40;47.42
6423;BME280;3244;42.708;23.288;2023-05-03T02:28:52;95297.81;;;12.40;47.81
6423;BME280;3244;42.708;23.288;2023-05-03T02:31:20;95298.63;;;12.41;47.95
6423;BME280;3244;42.708;23.288;2023-05-03T02:33:48;95299.41;;;12.43;47.81
6423;BME280;3244;42.708;23.288;2023-05-03T02:36:15;95305.41;;;12.42;47.72
6423;BME280;3244;42.708;23.288;2023-05-03T02:38:42;95292.13;;;12.34;48.09
6423;BME280;3244;42.708;23.288;2023-05-03T02:41:08;95312.88;;;12.23;48.33
6423;BME280;3244;42.708;23.288;2023-05-03T02:43:35;95313.50;;;12.30;48.26
6423;BME280;3244;42.708;23.288;2023-05-03T02:46:02;95319.50;;;12.29;48.29
6423;BME280;3244;42.708;23.288;2023-05-03T02:48:28;95316.94;;;12.29;48.14
6423;BME280;3244;42.708;23.288;2023-05-03T02:50:57;95324.69;;;12.25;48.30
6423;BME280;3244;42.708;23.288;2023-05-03T02:53:24;95320.44;;;12.26;48.21
6423;BME280;3244;42.708;23.288;2023-05-03T02:55:50;95312.50;;;12.34;47.94
6423;BME280;3244;42.708;23.288;2023-05-03T02:58:17;95310.84;;;12.33;48.17
6423;BME280;3244;42.708;23.288;2023-05-03T03:00:43;95304.19;;;12.29;48.16
6423;BME280;3244;42.708;23.288;2023-05-03T03:03:10;95314.66;;;12.44;47.79
6423;BME280;3244;42.708;23.288;2023-05-03T03:05:37;95309.59;;;12.43;47.94
6423;BME280;3244;42.708;23.288;2023-05-03T03:08:05;95321.53;;;12.42;47.78
6423;BME280;3244;42.708;23.288;2023-05-03T03:10:32;95322.72;;;12.34;47.98
6423;BME280;3244;42.708;23.288;2023-05-03T03:12:58;95325.38;;;12.31;48.28
6423;BME280;3244;42.708;23.288;2023-05-03T03:15:25;95319.50;;;12.29;48.34
6423;BME280;3244;42.708;23.288;2023-05-03T03:17:52;95323.75;;;12.28;48.38
6423;BME280;3244;42.708;23.288;2023-05-03T03:20:22;95316.53;;;12.39;48.21
6423;BME280;3244;42.708;23.288;2023-05-03T03:22:48;95320.16;;;12.34;48.17
6423;BME280;3244;42.708;23.288;2023-05-03T03:25:17;95314.81;;;12.40;48.70
6423;BME280;3244;42.708;23.288;2023-05-03T03:27:43;95334.56;;;12.35;48.77
6423;BME280;3244;42.708;23.288;2023-05-03T03:30:10;95335.78;;;12.24;48.85
6423;BME280;3244;42.708;23.288;2023-05-03T03:32:37;95323.91;;;12.23;48.92
6423;BME280;3244;42.708;23.288;2023-05-03T03:35:04;95325.19;;;12.35;49.02
6423;BME280;3244;42.708;23.288;2023-05-03T03:37:32;95337.66;;;12.43;49.13
6423;BME280;3244;42.708;23.288;2023-05-03T03:39:59;95343.06;;;12.10;49.54
6423;BME280;3244;42.708;23.288;2023-05-03T03:42:27;95342.94;;;12.13;49.76
6423;BME280;3244;42.708;23.288;2023-05-03T03:44:54;95352.59;;;12.05;49.82
6423;BME280;3244;42.708;23.288;2023-05-03T03:47:20;95350.47;;;12.16;49.41
6423;BME280;3244;42.708;23.288;2023-05-03T03:49:47;95350.59;;;12.13;49.58
6423;BME280;3244;42.708;23.288;2023-05-03T03:52:14;95348.81;;;12.15;49.67
6423;BME280;3244;42.708;23.288;2023-05-03T03:54:40;95354.06;;;12.12;49.43
6423;BME280;3244;42.708;23.288;2023-05-03T03:57:07;95368.72;;;12.06;50.07
6423;BME280;3244;42.708;23.288;2023-05-03T03:59:35;95362.50;;;12.13;49.93
6423;BME280;3244;42.708;23.288;2023-05-03T04:02:02;95374.03;;;12.23;49.76
6423;BME280;3244;42.708;23.288;2023-05-03T04:04:29;95365.78;;;12.16;49.54
6423;BME280;3244;42.708;23.288;2023-05-03T04:06:55;95361.44;;;12.18;49.38
6423;BME280;3244;42.708;23.288;2023-05-03T04:09:22;95369.88;;;12.20;49.34
6423;BME280;3244;42.708;23.288;2023-05-03T04:11:49;95368.41;;;12.13;49.40
6423;BME280;3244;42.708;23.288;2023-05-03T04:14:15;95369.19;;;12.15;49.49
6423;BME280;3244;42.708;23.288;2023-05-03T04:16:43;95371.88;;;12.12;49.09
6423;BME280;3244;42.708;23.288;2023-05-03T04:19:10;95384.72;;;12.09;49.45
6423;BME280;3244;42.708;23.288;2023-05-03T04:21:37;95379.63;;;12.09;49.48
6423;BME280;3244;42.708;23.288;2023-05-03T04:24:06;95383.25;;;12.02;49.77
6423;BME280;3244;42.708;23.288;2023-05-03T04:26:34;95387.91;;;12.14;49.47
6423;BME280;3244;42.708;23.288;2023-05-03T04:29:00;95400.59;;;12.16;49.46
6423;BME280;3244;42.708;23.288;2023-05-03T04:31:28;95422.97;;;12.08;49.67
6423;BME280;3244;42.708;23.288;2023-05-03T04:33:56;95409.72;;;11.98;49.96
6423;BME280;3244;42.708;23.288;2023-05-03T04:36:23;95414.50;;;12.07;49.89
6423;BME280;3244;42.708;23.288;2023-05-03T04:38:51;95421.38;;;12.05;50.03
6423;BME280;3244;42.708;23.288;2023-05-03T04:41:17;95417.75;;;12.12;50.46
6423;BME280;3244;42.708;23.288;2023-05-03T04:43:44;95426.97;;;12.15;50.74
6423;BME280;3244;42.708;23.288;2023-05-03T04:46:11;95423.81;;;12.08;50.73
6423;BME280;3244;42.708;23.288;2023-05-03T04:48:38;95429.13;;;12.27;50.38
6423;BME280;3244;42.708;23.288;2023-05-03T04:51:06;95433.59;;;12.20;50.35
6423;BME280;3244;42.708;23.288;2023-05-03T04:53:33;95437.00;;;12.19;50.35
6423;BME280;3244;42.708;23.288;2023-05-03T04:55:59;95443.47;;;12.05;51.04
6423;BME280;3244;42.708;23.288;2023-05-03T04:58:26;95440.09;;;12.04;51.29
6423;BME280;3244;42.708;23.288;2023-05-03T05:00:53;95469.53;;;11.86;51.29
6423;BME280;3244;42.708;23.288;2023-05-03T05:03:19;95442.56;;;11.81;51.83
6423;BME280;3244;42.708;23.288;2023-05-03T05:05:46;95444.69;;;11.93;51.44
6423;BME280;3244;42.708;23.288;2023-05-03T05:08:14;95466.81;;;11.91;51.50
6423;BME280;3244;42.708;23.288;2023-05-03T05:10:41;95452.91;;;12.01;51.58
6423;BME280;3244;42.708;23.288;2023-05-03T05:13:08;95461.53;;;11.97;51.53
6423;BME280;3244;42.708;23.288;2023-05-03T05:15:34;95472.31;;;11.79;52.97
6423;BME280;3244;42.708;23.288;2023-05-03T05:18:01;95464.19;;;11.66;54.24
6423;BME280;3244;42.708;23.288;2023-05-03T05:20:28;95461.50;;;11.71;55.34
6423;BME280;3244;42.708;23.288;2023-05-03T05:22:54;95462.38;;;11.70;55.60
6423;BME280;3244;42.708;23.288;2023-05-03T05:25:22;95460.47;;;11.50;56.53
6423;BME280;3244;42.708;23.288;2023-05-03T05:27:49;95469.03;;;11.47;56.98
6423;BME280;3244;42.708;23.288;2023-05-03T05:30:16;95459.72;;;11.46;57.85
6423;BME280;3244;42.708;23.288;2023-05-03T05:32:43;95469.06;;;11.46;57.40
6423;BME280;3244;42.708;23.288;2023-05-03T05:35:10;95454.69;;;11.71;57.17
6423;BME280;3244;42.708;23.288;2023-05-03T05:37:37;95466.50;;;12.02;55.45
6423;BME280;3244;42.708;23.288;2023-05-03T05:40:05;95464.50;;;11.85;55.61
6423;BME280;3244;42.708;23.288;2023-05-03T05:42:33;95466.81;;;11.91;55.84
6423;BME280;3244;42.708;23.288;2023-05-03T05:45:00;95468.69;;;12.12;55.04
6423;BME280;3244;42.708;23.288;2023-05-03T05:47:26;95457.00;;;12.32;54.06
6423;BME280;3244;42.708;23.288;2023-05-03T05:49:53;95470.63;;;12.31;53.84
6423;BME280;3244;42.708;23.288;2023-05-03T05:52:20;95469.97;;;12.49;52.99
6423;BME280;3244;42.708;23.288;2023-05-03T05:54:47;95469.19;;;12.47;52.85
6423;BME280;3244;42.708;23.288;2023-05-03T05:57:13;95465.00;;;12.46;52.81
6423;BME280;3244;42.708;23.288;2023-05-03T05:59:42;95470.03;;;12.47;53.32
6423;BME280;3244;42.708;23.288;2023-05-03T06:02:13;95468.31;;;12.48;53.04
6423;BME280;3244;42.708;23.288;2023-05-03T06:04:40;95472.59;;;12.22;53.88
6423;BME280;3244;42.708;23.288;2023-05-03T06:07:07;95471.56;;;12.28;54.00
6423;BME280;3244;42.708;23.288;2023-05-03T06:09:34;95467.28;;;12.29;54.32
6423;BME280;3244;42.708;23.288;2023-05-03T06:12:00;95483.47;;;12.27;54.14
6423;BME280;3244;42.708;23.288;2023-05-03T06:14:27;95474.78;;;12.08;54.85
6423;BME280;3244;42.708;23.288;2023-05-03T06:16:55;95479.97;;;12.05;55.15
6423;BME280;3244;42.708;23.288;2023-05-03T06:19:22;95463.84;;;12.05;55.37
6423;BME280;3244;42.708;23.288;2023-05-03T06:21:49;95458.31;;;11.92;56.19
6423;BME280;3244;42.708;23.288;2023-05-03T06:24:16;95462.50;;;12.19;55.63
6423;BME280;3244;42.708;23.288;2023-05-03T06:26:45;95477.22;;;12.11;55.47
6423;BME280;3244;42.708;23.288;2023-05-03T06:29:12;95468.88;;;12.06;56.18
6423;BME280;3244;42.708;23.288;2023-05-03T06:31:38;95470.56;;;12.07;56.42
6423;BME280;3244;42.708;23.288;2023-05-03T06:34:07;95457.53;;;12.15;57.41
6423;BME280;3244;42.708;23.288;2023-05-03T06:36:34;95454.13;;;12.16;56.17
6423;BME280;3244;42.708;23.288;2023-05-03T06:39:02;95443.53;;;12.28;56.09
6423;BME280;3244;42.708;23.288;2023-05-03T06:41:29;95438.00;;;12.64;55.22
6423;BME280;3244;42.708;23.288;2023-05-03T06:43:57;95443.00;;;12.90;54.27
6423;BME280;3244;42.708;23.288;2023-05-03T06:46:25;95444.41;;;12.99;53.90
6423;BME280;3244;42.708;23.288;2023-05-03T06:48:51;95441.84;;;12.99;53.27
6423;BME280;3244;42.708;23.288;2023-05-03T06:51:21;95439.84;;;13.07;53.21
6423;BME280;3244;42.708;23.288;2023-05-03T06:53:52;95438.00;;;12.87;53.91
6423;BME280;3244;42.708;23.288;2023-05-03T06:56:19;95425.63;;;12.78;54.06
6423;BME280;3244;42.708;23.288;2023-05-03T06:58:45;95423.13;;;12.76;53.94
6423;BME280;3244;42.708;23.288;2023-05-03T07:01:12;95428.44;;;12.70;54.17
6423;BME280;3244;42.708;23.288;2023-05-03T07:03:39;95420.00;;;12.68;54.41
6423;BME280;3244;42.708;23.288;2023-05-03T07:06:05;95428.88;;;12.58;54.31
6423;BME280;3244;42.708;23.288;2023-05-03T07:08:33;95417.66;;;12.39;54.14
6423;BME280;3244;42.708;23.288;2023-05-03T07:11:00;95410.38;;;12.53;54.74
6423;BME280;3244;42.708;23.288;2023-05-03T07:13:28;95409.94;;;12.40;54.61
6423;BME280;3244;42.708;23.288;2023-05-03T07:15:55;95430.97;;;12.22;55.11
6423;BME280;3244;42.708;23.288;2023-05-03T07:18:22;95423.03;;;12.31;55.36
6423;BME280;3244;42.708;23.288;2023-05-03T07:20:49;95419.66;;;12.31;55.21
6423;BME280;3244;42.708;23.288;2023-05-03T07:23:15;95400.91;;;12.56;55.26
6423;BME280;3244;42.708;23.288;2023-05-03T07:25:44;95412.94;;;12.98;53.53
6423;BME280;3244;42.708;23.288;2023-05-03T07:28:11;95405.84;;;13.06;53.38
6423;BME280;3244;42.708;23.288;2023-05-03T07:30:38;95402.69;;;13.23;53.81
6423;BME280;3244;42.708;23.288;2023-05-03T07:33:05;95415.94;;;13.09;54.10
6423;BME280;3244;42.708;23.288;2023-05-03T07:35:32;95424.09;;;13.19;54.76
6423;BME280;3244;42.708;23.288;2023-05-03T07:37:59;95434.53;;;13.36;53.89
6423;BME280;3244;42.708;23.288;2023-05-03T07:40:25;95418.22;;;13.39;54.73
6423;BME280;3244;42.708;23.288;2023-05-03T07:42:54;95420.59;;;13.43;54.56
6423;BME280;3244;42.708;23.288;2023-05-03T07:45:21;95419.06;;;13.17;54.87
6423;BME280;3244;42.708;23.288;2023-05-03T07:47:48;95417.22;;;13.21;55.58
6423;BME280;3244;42.708;23.288;2023-05-03T07:50:14;95416.22;;;13.25;55.82
6423;BME280;3244;42.708;23.288;2023-05-03T07:52:41;95427.03;;;13.32;55.25
6423;BME280;3244;42.708;23.288;2023-05-03T07:55:08;95430.22;;;13.37;55.60
6423;BME280;3244;42.708;23.288;2023-05-03T07:57:35;95426.66;;;13.41;55.29
6423;BME280;3244;42.708;23.288;2023-05-03T08:00:04;95434.16;;;13.45;55.55
6423;BME280;3244;42.708;23.288;2023-05-03T08:02:32;95422.69;;;13.55;55.64
6423;BME280;3244;42.708;23.288;2023-05-03T08:04:59;95424.63;;;13.71;55.59
6423;BME280;3244;42.708;23.288;2023-05-03T08:07:25;95433.06;;;13.73;54.47
6423;BME280;3244;42.708;23.288;2023-05-03T08:09:53;95436.81;;;14.06;53.77
6423;BME280;3244;42.708;23.288;2023-05-03T08:12:21;95437.25;;;14.16;53.48
6423;BME280;3244;42.708;23.288;2023-05-03T08:14:47;95435.94;;;14.07;54.33
6423;BME280;3244;42.708;23.288;2023-05-03T08:17:15;95435.75;;;13.90;54.50
6423;BME280;3244;42.708;23.288;2023-05-03T08:19:42;95430.91;;;13.84;54.95
6423;BME280;3244;42.708;23.288;2023-05-03T08:22:09;95428.13;;;14.10;54.48
6423;BME280;3244;42.708;23.288;2023-05-03T08:24:36;95430.72;;;14.88;52.59
6423;BME280;3244;42.708;23.288;2023-05-03T08:27:03;95433.38;;;15.24;51.27
6423;BME280;3244;42.708;23.288;2023-05-03T08:29:33;95432.31;;;15.10;51.53
6423;BME280;3244;42.708;23.288;2023-05-03T08:32:02;95436.88;;;15.59;50.70
6423;BME280;3244;42.708;23.288;2023-05-03T08:34:31;95429.19;;;16.80;48.08
6423;BME280;3244;42.708;23.288;2023-05-03T08:36:57;95424.44;;;18.73;43.85
6423;BME280;3244;42.708;23.288;2023-05-03T08:39:24;95403.75;;;19.70;40.59
6423;BME280;3244;42.708;23.288;2023-05-03T08:41:52;95407.03;;;20.52;39.27
6423;BME280;3244;42.708;23.288;2023-05-03T08:44:20;95413.34;;;23.10;34.24
6423;BME280;3244;42.708;23.288;2023-05-03T08:46:48;95396.00;;;25.81;30.28
6423;BME280;3244;42.708;23.288;2023-05-03T08:49:15;95392.94;;;28.27;26.07
6423;BME280;3244;42.708;23.288;2023-05-03T08:51:44;95392.00;;;29.48;24.69
6423;BME280;3244;42.708;23.288;2023-05-03T08:54:11;95401.00;;;29.11;24.67
6423;BME280;3244;42.708;23.288;2023-05-03T08:56:40;95399.31;;;28.76;25.61
6423;BME280;3244;42.708;23.288;2023-05-03T08:59:07;95402.41;;;29.66;24.18
6423;BME280;3244;42.708;23.288;2023-05-03T09:01:34;95399.16;;;27.08;27.06
6423;BME280;3244;42.708;23.288;2023-05-03T09:04:01;95413.16;;;25.34;29.62
6423;BME280;3244;42.708;23.288;2023-05-03T09:06:28;95427.75;;;21.87;35.10
6423;BME280;3244;42.708;23.288;2023-05-03T09:08:59;95427.56;;;19.47;40.18
6423;BME280;3244;42.708;23.288;2023-05-03T09:11:28;95434.66;;;18.30;42.98
6423;BME280;3244;42.708;23.288;2023-05-03T09:14:07;95408.19;;;17.98;44.82
6423;BME280;3244;42.708;23.288;2023-05-03T09:16:34;95411.59;;;18.43;44.02
6423;BME280;3244;42.708;23.288;2023-05-03T09:19:01;95413.47;;;17.81;44.50
6423;BME280;3244;42.708;23.288;2023-05-03T09:21:29;95405.47;;;17.85;44.90
6423;BME280;3244;42.708;23.288;2023-05-03T09:23:56;95402.06;;;18.15;44.76
6423;BME280;3244;42.708;23.288;2023-05-03T09:26:30;95395.22;;;19.15;42.41
6423;BME280;3244;42.708;23.288;2023-05-03T09:28:57;95392.72;;;19.68;41.73
6423;BME280;3244;42.708;23.288;2023-05-03T09:31:24;95394.16;;;19.31;41.36
6423;BME280;3244;42.708;23.288;2023-05-03T09:33:51;95387.59;;;18.56;43.21
6423;BME280;3244;42.708;23.288;2023-05-03T09:36:18;95384.94;;;18.29;44.85
6423;BME280;3244;42.708;23.288;2023-05-03T09:38:45;95376.84;;;18.21;44.86
6423;BME280;3244;42.708;23.288;2023-05-03T09:41:12;95367.09;;;18.41;44.58
6423;BME280;3244;42.708;23.288;2023-05-03T09:43:49;95363.13;;;18.21;45.68
6423;BME280;3244;42.708;23.288;2023-05-03T09:46:16;95366.59;;;18.64;44.84
6423;BME280;3244;42.708;23.288;2023-05-03T09:48:43;95359.22;;;18.86;44.65
6423;BME280;3244;42.708;23.288;2023-05-03T09:51:11;95352.69;;;18.95;44.34
6423;BME280;3244;42.708;23.288;2023-05-03T09:53:39;95358.78;;;18.80;44.41
6423;BME280;3244;42.708;23.288;2023-05-03T09:56:06;95365.66;;;18.93;44.28
6423;BME280;3244;42.708;23.288;2023-05-03T09:58:35;95353.88;;;18.89;44.24
6423;BME280;3244;42.708;23.288;2023-05-03T10:01:03;95352.13;;;18.90;44.37
6423;BME280;3244;42.708;23.288;2023-05-03T10:03:33;95351.97;;;19.20;44.08
6423;BME280;3244;42.708;23.288;2023-05-03T10:06:02;95356.22;;;19.07;43.42
6423;BME280;3244;42.708;23.288;2023-05-03T10:08:32;95354.09;;;19.27;43.38
6423;BME280;3244;42.708;23.288;2023-05-03T10:11:01;95348.34;;;18.81;44.08
6423;BME280;3244;42.708;23.288;2023-05-03T10:13:29;95357.34;;;18.17;45.38
6423;BME280;3244;42.708;23.288;2023-05-03T10:15:59;95354.50;;;18.22;45.65
6423;BME280;3244;42.708;23.288;2023-05-03T10:18:31;95347.16;;;18.58;45.50
6423;BME280;3244;42.708;23.288;2023-05-03T10:21:01;95332.53;;;18.87;44.81
6423;BME280;3244;42.708;23.288;2023-05-03T10:23:29;95342.34;;;19.36;44.57
6423;BME280;3244;42.708;23.288;2023-05-03T10:26:14;95327.75;;;19.49;43.98
6423;BME280;3244;42.708;23.288;2023-05-03T10:28:41;95322.69;;;18.94;44.27
6423;BME280;3244;42.708;23.288;2023-05-03T10:31:42;95311.59;;;18.79;45.91
6423;BME280;3244;42.708;23.288;2023-05-03T10:34:21;95303.34;;;18.60;45.51
6423;BME280;3244;42.708;23.288;2023-05-03T10:36:50;95307.28;;;19.07;44.59
6423;BME280;3244;42.708;23.288;2023-05-03T10:39:18;95314.44;;;19.16;44.51
6423;BME280;3244;42.708;23.288;2023-05-03T10:41:56;95299.78;;;19.03;45.05
6423;BME280;3244;42.708;23.288;2023-05-03T10:44:28;95312.53;;;18.78;45.76
6423;BME280;3244;42.708;23.288;2023-05-03T10:47:09;95305.34;;;18.41;46.66
6423;BME280;3244;42.708;23.288;2023-05-03T10:49:38;95315.19;;;18.06;47.92
6423;BME280;3244;42.708;23.288;2023-05-03T10:55:21;95297.00;;;18.23;47.29
6423;BME280;3244;42.708;23.288;2023-05-03T10:57:52;95308.09;;;17.95;47.86
6423;BME280;3244;42.708;23.288;2023-05-03T11:00:23;95308.09;;;17.95;48.21
6423;BME280;3244;42.708;23.288;2023-05-03T11:06:25;95321.59;;;17.98;48.20
6423;BME280;3244;42.708;23.288;2023-05-03T11:08:52;95306.63;;;18.05;48.43
6423;BME280;3244;42.708;23.288;2023-05-03T11:11:19;95296.69;;;18.13;48.11
6423;BME280;3244;42.708;23.288;2023-05-03T11:13:46;95307.16;;;18.10;48.35
6423;BME280;3244;42.708;23.288;2023-05-03T11:16:13;95290.94;;;18.24;48.02
6423;BME280;3244;42.708;23.288;2023-05-03T11:18:39;95288.25;;;18.40;47.44
6423;BME280;3244;42.708;23.288;2023-05-03T11:21:06;95282.91;;;18.71;47.13
6423;BME280;3244;42.708;23.288;2023-05-03T11:23:37;95294.34;;;18.94;46.62
6423;BME280;3244;42.708;23.288;2023-05-03T11:26:04;95279.34;;;19.00;46.79
6423;BME280;3244;42.708;23.288;2023-05-03T11:28:31;95286.53;;;18.95;47.05
6423;BME280;3244;42.708;23.288;2023-05-03T11:30:58;95260.44;;;19.14;46.87
6423;BME280;3244;42.708;23.288;2023-05-03T11:33:27;95265.38;;;19.44;46.49
6423;BME280;3244;42.708;23.288;2023-05-03T11:35:55;95266.66;;;19.24;46.79
6423;BME280;3244;42.708;23.288;2023-05-03T11:38:21;95267.06;;;19.31;46.24
6423;BME280;3244;42.708;23.288;2023-05-03T11:40:49;95277.38;;;19.31;46.84
6423;BME280;3244;42.708;23.288;2023-05-03T11:43:16;95276.59;;;19.43;46.44
6423;BME280;3244;42.708;23.288;2023-05-03T11:45:44;95271.81;;;19.51;46.29
6423;BME280;3244;42.708;23.288;2023-05-03T11:48:12;95267.28;;;19.80;46.19
6423;BME280;3244;42.708;23.288;2023-05-03T11:50:46;95257.59;;;19.84;45.41
6423;BME280;3244;42.708;23.288;2023-05-03T11:53:16;95249.47;;;20.15;45.32
6423;BME280;3244;42.708;23.288;2023-05-03T11:55:45;95246.31;;;20.35;44.57
6423;BME280;3244;42.708;23.288;2023-05-03T11:58:14;95239.03;;;19.91;45.30
6423;BME280;3244;42.708;23.288;2023-05-03T12:00:42;95247.38;;;19.82;45.80
6423;BME280;3244;42.708;23.288;2023-05-03T12:03:10;95250.66;;;19.59;45.89
6423;BME280;3244;42.708;23.288;2023-05-03T12:05:36;95242.13;;;19.19;47.13
6423;BME280;3244;42.708;23.288;2023-05-03T12:08:03;95235.56;;;19.27;46.91
6423;BME280;3244;42.708;23.288;2023-05-03T12:10:31;95240.63;;;19.02;47.89
6423;BME280;3244;42.708;23.288;2023-05-03T12:12:58;95236.53;;;18.85;48.35
6423;BME280;3244;42.708;23.288;2023-05-03T12:15:32;95252.56;;;18.76;48.00
6423;BME280;3244;42.708;23.288;2023-05-03T12:18:00;95234.84;;;18.72;48.55
6423;BME280;3244;42.708;23.288;2023-05-03T12:20:28;95231.88;;;18.78;48.46
6423;BME280;3244;42.708;23.288;2023-05-03T12:22:58;95236.22;;;18.49;48.75
6423;BME280;3244;42.708;23.288;2023-05-03T12:25:26;95239.41;;;18.25;49.31
6423;BME280;3244;42.708;23.288;2023-05-03T12:27:53;95231.31;;;18.17;50.00
6423;BME280;3244;42.708;23.288;2023-05-03T12:30:19;95241.22;;;17.95;50.46
6423;BME280;3244;42.708;23.288;2023-05-03T12:32:48;95243.72;;;17.52;52.05
6423;BME280;3244;42.708;23.288;2023-05-03T12:35:16;95233.84;;;17.30;51.84
6423;BME280;3244;42.708;23.288;2023-05-03T12:37:43;95238.56;;;16.92;53.12
6423;BME280;3244;42.708;23.288;2023-05-03T12:40:11;95237.09;;;16.73;54.07
6423;BME280;3244;42.708;23.288;2023-05-03T12:42:38;95244.31;;;16.66;54.15
6423;BME280;3244;42.708;23.288;2023-05-03T12:45:05;95229.88;;;16.48;55.27
6423;BME280;3244;42.708;23.288;2023-05-03T12:47:33;95244.84;;;16.40;56.03
6423;BME280;3244;42.708;23.288;2023-05-03T12:50:02;95220.03;;;16.56;55.64
6423;BME280;3244;42.708;23.288;2023-05-03T12:52:29;95225.66;;;16.47;55.96
6423;BME280;3244;42.708;23.288;2023-05-03T12:54:57;95227.56;;;16.43;56.19
6423;BME280;3244;42.708;23.288;2023-05-03T12:57:24;95249.50;;;16.49;56.29
6423;BME280;3244;42.708;23.288;2023-05-03T12:59:51;95220.03;;;16.40;56.21
6423;BME280;3244;42.708;23.288;2023-05-03T13:02:19;95229.28;;;16.43;56.42
6423;BME280;3244;42.708;23.288;2023-05-03T13:04:46;95224.31;;;16.40;56.88
6423;BME280;3244;42.708;23.288;2023-05-03T13:07:16;95229.88;;;16.48;57.42
6423;BME280;3244;42.708;23.288;2023-05-03T13:09:43;95237.72;;;16.45;58.17
6423;BME280;3244;42.708;23.288;2023-05-03T13:12:10;95222.19;;;16.48;58.49
6423;BME280;3244;42.708;23.288;2023-05-03T13:14:38;95224.59;;;16.51;58.74
6423;BME280;3244;42.708;23.288;2023-05-03T13:17:05;95223.84;;;16.49;59.61
6423;BME280;3244;42.708;23.288;2023-05-03T13:19:32;95215.13;;;16.36;59.76